createdAt,value
2022-09-12T00:00:45.999Z,17.40
2022-09-12T00:02:17.844Z,20.58
2022-09-12T00:03:51.853Z,17.73
2022-09-12T00:05:31.173Z,18.92
2022-09-12T00:07:03.018Z,18.63
2022-09-12T00:08:34.880Z,19.35
2022-09-12T00:10:07.707Z,20.07
2022-09-12T00:13:11.741Z,19.85
2022-09-12T00:14:43.565Z,19.85
2022-09-12T00:16:16.948Z,18.55
2022-09-12T00:17:48.787Z,19.60
2022-09-12T00:19:28.953Z,17.77
2022-09-12T00:21:04.902Z,25.80
2022-09-12T00:22:36.890Z,27.55
2022-09-12T00:24:11.733Z,24.05
2022-09-12T00:25:46.784Z,20.83
2022-09-12T00:27:18.541Z,21.92
2022-09-12T00:28:51.428Z,18.40
2022-09-12T00:31:55.077Z,16.67
2022-09-12T00:33:27.009Z,18.45
2022-09-12T00:34:58.774Z,18.47
2022-09-12T00:36:30.665Z,17.60
2022-09-12T00:38:02.435Z,16.63
2022-09-12T00:40:00.829Z,20.13
2022-09-12T00:41:35.081Z,17.70
2022-09-12T00:43:10.836Z,17.98
2022-09-12T00:44:43.995Z,16.85
2022-09-12T00:46:24.892Z,19.65
2022-09-12T00:48:00.684Z,13.57
2022-09-12T00:49:38.980Z,16.50
2022-09-12T00:51:11.430Z,16.10
2022-09-12T00:52:46.605Z,15.43
2022-09-12T00:54:24.766Z,21.25
2022-09-12T00:55:57.477Z,15.68
2022-09-12T00:57:33.333Z,18.10
2022-09-12T00:59:06.539Z,20.55
2022-09-12T01:00:44.264Z,17.27
2022-09-12T01:02:16.702Z,15.73
2022-09-12T01:03:48.999Z,16.33
2022-09-12T01:05:21.544Z,18.48
2022-09-12T01:06:55.100Z,18.00
2022-09-12T01:08:27.589Z,17.20
2022-09-12T01:09:59.987Z,16.60
2022-09-12T01:11:32.903Z,17.95
2022-09-12T01:13:06.379Z,16.88
2022-09-12T01:14:39.065Z,16.63
2022-09-12T01:16:10.983Z,18.40
2022-09-12T01:18:01.540Z,17.65
2022-09-12T01:19:39.536Z,19.27
2022-09-12T01:21:11.346Z,21.25
2022-09-12T01:22:43.902Z,18.10
2022-09-12T01:24:30.742Z,17.38
2022-09-12T01:26:20.928Z,18.08
2022-09-12T01:27:55.333Z,17.13
2022-09-12T01:29:35.686Z,20.92
2022-09-12T01:31:21.963Z,20.20
2022-09-12T01:33:06.128Z,21.92
2022-09-12T01:34:59.173Z,17.38
2022-09-12T01:36:31.053Z,20.73
2022-09-12T01:38:12.629Z,18.58
2022-09-12T01:40:03.500Z,19.95
2022-09-12T01:41:44.409Z,21.92
2022-09-12T01:43:24.953Z,22.33
2022-09-12T01:47:28.879Z,18.65
2022-09-12T01:49:03.177Z,23.92
2022-09-12T01:50:38.021Z,23.58
2022-09-12T01:52:21.813Z,25.65
2022-09-12T01:53:57.889Z,22.38
2022-09-12T01:55:34.959Z,23.65
2022-09-12T01:57:11.602Z,23.23
2022-09-12T01:58:45.948Z,23.45
2022-09-12T02:00:17.837Z,27.17
2022-09-12T02:01:59.650Z,22.60
2022-09-12T02:03:33.987Z,26.02
2022-09-12T02:05:29.592Z,23.45
2022-09-12T02:07:25.859Z,24.13
2022-09-12T02:09:23.822Z,24.42
2022-09-12T02:10:58.042Z,27.13
2022-09-12T02:12:32.662Z,25.52
2022-09-12T02:14:06.752Z,26.95
2022-09-12T02:15:40.366Z,28.73
2022-09-12T02:17:18.717Z,32.33
2022-09-12T02:19:07.679Z,28.88
2022-09-12T02:20:48.260Z,28.83
2022-09-12T02:22:21.936Z,32.25
2022-09-12T02:23:56.108Z,31.05
2022-09-12T02:25:29.444Z,34.72
2022-09-12T02:27:06.229Z,33.13
2022-09-12T02:28:42.380Z,36.38
2022-09-12T02:30:16.726Z,36.42
2022-09-12T02:34:06.210Z,38.70
2022-09-12T02:35:49.407Z,40.05
2022-09-12T02:38:53.582Z,41.95
2022-09-12T02:40:29.017Z,41.53
2022-09-12T02:42:09.832Z,43.53
2022-09-12T02:43:41.803Z,43.20
2022-09-12T02:45:19.743Z,40.40
2022-09-12T02:46:53.689Z,43.85
2022-09-12T02:48:34.640Z,46.08
2022-09-12T02:50:08.232Z,48.08
2022-09-12T02:51:40.278Z,44.40
2022-09-12T02:53:12.015Z,39.63
2022-09-12T02:54:44.381Z,43.45
2022-09-12T02:56:23.032Z,42.33
2022-09-12T02:57:54.754Z,42.15
2022-09-12T02:59:26.715Z,40.33
2022-09-12T03:01:12.734Z,41.20
2022-09-12T03:02:53.471Z,36.83
2022-09-12T03:04:31.078Z,42.53
2022-09-12T03:06:06.924Z,41.60
2022-09-12T03:07:45.105Z,40.70
2022-09-12T03:09:20.820Z,46.22
2022-09-12T03:10:52.871Z,46.00
2022-09-12T03:12:27.602Z,42.97
2022-09-12T03:14:17.414Z,48.95
2022-09-12T03:15:55.823Z,44.15
2022-09-12T03:17:33.503Z,43.00
2022-09-12T03:19:24.139Z,43.70
2022-09-12T03:20:58.677Z,47.40
2022-09-12T03:22:49.302Z,41.15
2022-09-12T03:24:29.515Z,40.88
2022-09-12T03:26:04.352Z,39.55
2022-09-12T03:27:41.281Z,41.83
2022-09-12T03:29:15.120Z,40.72
2022-09-12T03:30:49.042Z,40.72
2022-09-12T03:32:20.875Z,42.60
2022-09-12T03:33:58.743Z,42.10
2022-09-12T03:35:31.756Z,44.78
2022-09-12T03:37:03.611Z,45.35
2022-09-12T03:38:35.437Z,41.23
2022-09-12T03:40:08.706Z,41.93
2022-09-12T03:41:40.541Z,41.58
2022-09-12T03:43:12.572Z,46.95
2022-09-12T03:44:44.301Z,46.27
2022-09-12T03:46:16.109Z,53.85
2022-09-12T03:47:48.816Z,52.25
2022-09-12T03:49:20.592Z,49.83
2022-09-12T03:50:52.351Z,50.45
2022-09-12T03:52:24.199Z,46.42
2022-09-12T03:53:58.226Z,46.88
2022-09-12T03:55:29.935Z,44.83
2022-09-12T03:57:01.710Z,46.83
2022-09-12T03:58:34.095Z,41.72
2022-09-12T04:00:07.163Z,44.13
2022-09-12T04:01:44.235Z,50.70
2022-09-12T04:03:17.057Z,45.30
2022-09-12T04:06:22.523Z,45.58
2022-09-12T04:09:25.910Z,49.22
2022-09-12T04:11:08.106Z,50.20
2022-09-12T04:12:39.917Z,52.33
2022-09-12T04:14:11.622Z,51.85
2022-09-12T04:15:43.425Z,53.55
2022-09-12T04:17:15.284Z,47.78
2022-09-12T04:18:47.295Z,49.17
2022-09-12T04:20:22.327Z,45.22
2022-09-12T04:21:54.341Z,50.92
2022-09-12T04:23:26.066Z,47.33
2022-09-12T04:24:57.777Z,46.42
2022-09-12T04:26:30.025Z,45.80
2022-09-12T04:28:01.753Z,46.90
2022-09-12T04:29:33.619Z,52.70
2022-09-12T04:31:09.644Z,57.13
2022-09-12T04:32:41.596Z,53.63
2022-09-12T04:34:13.306Z,46.10
2022-09-12T04:35:45.627Z,51.90
2022-09-12T04:37:17.334Z,47.45
2022-09-12T04:38:49.498Z,48.33
2022-09-12T04:40:21.366Z,53.90
2022-09-12T04:41:53.084Z,59.72
2022-09-12T04:43:24.837Z,56.05
2022-09-12T04:44:56.577Z,52.47
2022-09-12T04:46:29.577Z,59.33
2022-09-12T04:48:01.621Z,52.08
2022-09-12T04:49:33.620Z,51.33
2022-09-12T04:51:14.285Z,54.95
2022-09-12T04:52:55.198Z,61.00
2022-09-12T04:54:26.956Z,62.40
2022-09-12T04:56:02.002Z,67.38
2022-09-12T04:57:33.840Z,57.28
2022-09-12T04:59:05.930Z,57.95
2022-09-12T05:00:38.086Z,58.03
2022-09-12T05:02:09.890Z,59.00
2022-09-12T05:03:43.628Z,65.07
2022-09-12T05:05:15.427Z,59.97
2022-09-12T05:06:47.641Z,59.03
2022-09-12T05:08:19.334Z,66.90
2022-09-12T05:09:51.105Z,66.55
2022-09-12T05:11:36.749Z,67.75
2022-09-12T05:13:25.937Z,64.00
2022-09-12T05:14:57.788Z,58.45
2022-09-12T05:16:31.533Z,62.67
2022-09-12T05:18:06.112Z,59.78
2022-09-12T05:19:38.043Z,70.05
2022-09-12T05:21:12.597Z,66.10
2022-09-12T05:22:44.539Z,70.00
2022-09-12T05:24:16.527Z,71.55
2022-09-12T05:25:49.734Z,71.10
2022-09-12T05:27:21.690Z,71.57
2022-09-12T05:28:56.958Z,66.80
2022-09-12T05:30:28.902Z,67.13
2022-09-12T05:32:00.885Z,71.10
2022-09-12T05:33:33.816Z,64.72
2022-09-12T05:35:08.766Z,70.57
2022-09-12T05:36:43.320Z,69.63
2022-09-12T05:38:15.291Z,69.47
2022-09-12T05:39:47.254Z,72.40
2022-09-12T05:41:24.671Z,66.10
2022-09-12T05:43:02.524Z,69.68
2022-09-12T05:44:37.525Z,65.65
2022-09-12T05:46:18.640Z,66.45
2022-09-12T05:47:53.127Z,68.65
2022-09-12T05:49:25.089Z,70.15
2022-09-12T05:51:01.665Z,74.00
2022-09-12T05:52:33.577Z,66.70
2022-09-12T05:54:06.551Z,70.43
2022-09-12T05:55:39.626Z,71.57
2022-09-12T05:57:11.570Z,72.07
2022-09-12T05:58:44.865Z,76.63
2022-09-12T06:00:17.487Z,74.63
2022-09-12T06:01:49.506Z,64.93
2022-09-12T06:03:21.600Z,69.68
2022-09-12T06:04:53.618Z,67.90
2022-09-12T06:06:25.895Z,74.35
2022-09-12T06:07:57.743Z,70.28
2022-09-12T06:09:32.334Z,70.15
2022-09-12T06:11:05.375Z,67.85
2022-09-12T06:12:37.505Z,65.88
2022-09-12T06:14:10.354Z,71.38
2022-09-12T06:17:15.707Z,62.78
2022-09-12T06:18:48.904Z,68.77
2022-09-12T06:20:21.122Z,66.60
2022-09-12T06:21:56.006Z,67.60
2022-09-12T06:23:27.968Z,63.80
2022-09-12T06:24:59.813Z,60.93
2022-09-12T06:26:31.780Z,59.58
2022-09-12T06:28:03.556Z,63.05
2022-09-12T06:29:35.495Z,66.05
2022-09-12T06:31:11.586Z,69.47
2022-09-12T06:32:43.551Z,61.85
2022-09-12T06:34:15.852Z,57.97
2022-09-12T06:35:47.669Z,62.28
2022-09-12T06:37:20.061Z,62.03
2022-09-12T06:39:17.726Z,58.08
2022-09-12T06:40:52.669Z,61.03
2022-09-12T06:42:24.840Z,59.67
2022-09-12T06:44:01.937Z,56.53
2022-09-12T06:45:33.769Z,59.17
2022-09-12T06:47:05.699Z,60.10
2022-09-12T06:48:41.805Z,59.07
2022-09-12T06:50:14.196Z,55.85
2022-09-12T06:51:46.032Z,55.50
2022-09-12T06:53:17.874Z,52.80
2022-09-12T06:54:50.037Z,57.67
2022-09-12T06:56:23.695Z,57.40
2022-09-12T06:57:58.251Z,60.38
2022-09-12T06:59:30.383Z,54.38
2022-09-12T07:01:12.640Z,55.92
2022-09-12T07:02:44.562Z,56.85
2022-09-12T07:04:16.612Z,55.58
2022-09-12T07:05:48.411Z,61.58
2022-09-12T07:07:20.365Z,57.53
2022-09-12T07:08:52.538Z,56.67
2022-09-12T07:10:24.299Z,56.70
2022-09-12T07:11:56.298Z,52.60
2022-09-12T07:13:28.199Z,51.67
2022-09-12T07:15:00.223Z,55.03
2022-09-12T07:16:32.253Z,52.73
2022-09-12T07:18:06.746Z,54.47
2022-09-12T07:19:38.509Z,55.50
2022-09-12T07:21:12.090Z,50.33
2022-09-12T07:22:43.951Z,52.70
2022-09-12T07:24:15.801Z,48.57
2022-09-12T07:25:52.706Z,56.95
2022-09-12T07:27:24.620Z,59.85
2022-09-12T07:29:12.789Z,57.17
2022-09-12T07:30:49.337Z,53.05
2022-09-12T07:32:21.128Z,55.10
2022-09-12T07:33:54.777Z,53.83
2022-09-12T07:35:26.930Z,50.40
2022-09-12T07:36:58.950Z,49.77
2022-09-12T07:38:31.275Z,50.50
2022-09-12T07:40:03.271Z,53.83
2022-09-12T07:41:36.572Z,55.55
2022-09-12T07:43:08.319Z,56.65
2022-09-12T07:44:40.364Z,60.42
2022-09-12T07:46:12.538Z,52.50
2022-09-12T07:47:45.251Z,50.00
2022-09-12T07:49:17.510Z,50.92
2022-09-12T07:50:57.539Z,49.50
2022-09-12T07:52:29.660Z,44.05
2022-09-12T07:54:01.429Z,47.70
2022-09-12T07:55:33.247Z,44.63
2022-09-12T07:57:05.072Z,46.78
2022-09-12T07:58:37.951Z,46.67
2022-09-12T08:01:48.980Z,49.80
2022-09-12T08:03:20.847Z,43.50
2022-09-12T08:04:53.031Z,43.10
2022-09-12T08:06:25.672Z,39.10
2022-09-12T08:07:57.889Z,43.30
2022-09-12T08:09:30.190Z,41.40
2022-09-12T08:11:03.295Z,38.40
2022-09-12T08:12:35.111Z,40.42
2022-09-12T08:14:06.888Z,40.50
2022-09-12T08:15:38.738Z,40.40
2022-09-12T08:17:11.180Z,42.25
2022-09-12T08:18:42.897Z,40.17
2022-09-12T08:20:14.788Z,39.83
2022-09-12T08:21:46.510Z,39.23
2022-09-12T08:23:21.374Z,39.42
2022-09-12T08:24:53.801Z,40.17
2022-09-12T08:26:25.958Z,38.72
2022-09-12T08:27:57.630Z,38.22
2022-09-12T08:29:29.312Z,39.70
2022-09-12T08:31:05.501Z,33.80
2022-09-12T08:32:37.542Z,31.67
2022-09-12T08:34:09.253Z,33.75
2022-09-12T08:35:41.147Z,35.08
2022-09-12T08:37:12.937Z,34.93
2022-09-12T08:38:45.349Z,29.60
2022-09-12T08:40:17.360Z,29.10
2022-09-12T08:41:55.089Z,34.70
2022-09-12T08:43:45.101Z,38.30
2022-09-12T08:45:32.889Z,29.45
2022-09-12T08:47:07.128Z,31.60
2022-09-12T08:48:39.123Z,30.35
2022-09-12T08:50:11.784Z,23.20
2022-09-12T08:51:44.973Z,27.55
2022-09-12T08:53:20.541Z,25.83
2022-09-12T08:54:52.658Z,24.23
2022-09-12T08:56:31.536Z,29.55
2022-09-12T08:58:20.337Z,26.25
2022-09-12T08:59:53.218Z,26.40
2022-09-12T09:01:31.522Z,23.95
2022-09-12T09:03:21.759Z,21.40
2022-09-12T09:05:01.805Z,20.45
2022-09-12T09:06:39.202Z,23.48
2022-09-12T09:08:19.727Z,24.92
2022-09-12T09:09:57.325Z,19.63
2022-09-12T09:11:34.183Z,17.02
2022-09-12T09:13:39.176Z,20.15
2022-09-12T09:15:11.569Z,19.40
2022-09-12T09:16:44.423Z,17.38
2022-09-12T09:18:21.370Z,15.90
2022-09-12T09:20:05.768Z,19.55
2022-09-12T09:21:40.435Z,15.80
2022-09-12T09:23:19.374Z,15.77
2022-09-12T09:24:53.478Z,15.48
2022-09-12T09:26:30.654Z,13.02
2022-09-12T09:28:04.923Z,14.07
2022-09-12T09:29:39.481Z,14.60
2022-09-12T09:31:14.818Z,15.68
2022-09-12T09:32:49.928Z,13.43
2022-09-12T09:34:23.290Z,13.02
2022-09-12T09:36:03.958Z,13.32
2022-09-12T09:37:41.219Z,13.38
2022-09-12T09:39:28.380Z,11.27
2022-09-12T09:41:03.075Z,14.43
2022-09-12T09:42:54.271Z,11.55
2022-09-12T09:44:28.546Z,12.13
2022-09-12T09:46:00.762Z,17.00
2022-09-12T09:47:32.645Z,11.73
2022-09-12T09:49:07.150Z,13.02
2022-09-12T09:50:39.230Z,12.32
2022-09-12T09:52:12.469Z,9.38
2022-09-12T09:53:48.660Z,10.52
2022-09-12T09:55:25.363Z,8.90
2022-09-12T09:56:57.212Z,10.77
2022-09-12T09:58:33.282Z,10.65
2022-09-12T10:00:34.626Z,9.55
2022-09-12T10:02:09.536Z,8.27
2022-09-12T10:03:47.729Z,7.32
2022-09-12T10:05:22.327Z,8.27
2022-09-12T10:06:54.914Z,6.35
2022-09-12T10:08:31.002Z,6.63
2022-09-12T10:10:19.048Z,8.50
2022-09-12T10:11:51.396Z,7.43
2022-09-12T10:13:32.683Z,8.88
2022-09-12T10:15:16.029Z,81.22
2022-09-12T10:16:54.051Z,49.33
2022-09-12T10:18:33.525Z,17.77
2022-09-12T10:20:22.178Z,13.25
2022-09-12T10:21:56.332Z,40.28
2022-09-12T10:23:42.496Z,8.52
2022-09-12T10:25:18.330Z,8.82
2022-09-12T10:27:10.339Z,7.80
2022-09-12T10:28:48.533Z,5.60
2022-09-12T10:30:21.069Z,7.68
2022-09-12T10:33:26.591Z,7.18
2022-09-12T10:35:02.727Z,4.57
2022-09-12T10:36:38.680Z,8.07
2022-09-12T10:38:30.503Z,6.43
2022-09-12T10:40:05.329Z,6.45
2022-09-12T10:41:38.518Z,5.05
2022-09-12T10:43:26.489Z,5.00
2022-09-12T10:45:00.722Z,6.57
2022-09-12T10:46:32.505Z,4.18
2022-09-12T10:48:22.984Z,5.97
2022-09-12T10:50:22.291Z,3.88
2022-09-12T10:51:55.642Z,3.90
2022-09-12T10:55:02.928Z,4.10
2022-09-12T10:56:39.182Z,5.10
2022-09-12T10:58:37.189Z,3.50
2022-09-12T11:00:20.537Z,5.38
2022-09-12T11:02:01.358Z,4.05
2022-09-12T11:03:59.263Z,3.55
2022-09-12T11:05:55.889Z,5.25
2022-09-12T11:07:27.672Z,4.03
2022-09-12T11:09:04.728Z,8.70
2022-09-12T11:10:44.547Z,5.07
2022-09-12T11:12:22.536Z,3.42
2022-09-12T11:14:12.611Z,6.18
2022-09-12T11:16:01.438Z,3.58
2022-09-12T18:35:39.708Z,7.05
2022-09-12T18:37:12.879Z,5.63
2022-09-12T18:38:44.766Z,8.10
2022-09-12T18:40:16.579Z,8.27
2022-09-12T18:41:48.316Z,6.43
2022-09-12T18:43:19.995Z,18.45
2022-09-12T18:44:52.053Z,5.93
2022-09-12T18:46:24.179Z,6.65
2022-09-12T18:47:56.193Z,12.68
2022-09-12T18:49:27.929Z,8.70
2022-09-12T18:51:06.822Z,9.55
2022-09-12T18:52:38.485Z,8.75
2022-09-12T18:54:12.375Z,10.02
2022-09-12T18:55:44.071Z,7.53
2022-09-12T18:57:15.743Z,10.17
2022-09-12T18:58:50.434Z,6.97
2022-09-12T19:00:28.805Z,8.93
2022-09-12T19:02:01.325Z,8.73
2022-09-12T19:03:33.065Z,12.70
2022-09-12T19:05:05.953Z,12.07
2022-09-12T19:08:09.927Z,12.52
2022-09-12T19:09:41.925Z,11.90
2022-09-12T19:11:14.203Z,10.82
2022-09-12T19:12:46.660Z,12.50
2022-09-12T19:14:22.832Z,11.65
2022-09-12T19:15:54.652Z,9.48
2022-09-12T19:17:26.687Z,7.93
2022-09-12T19:18:58.941Z,8.98
2022-09-12T19:20:30.650Z,8.18
2022-09-12T19:22:02.360Z,9.13
2022-09-12T19:23:34.364Z,8.32
2022-09-12T19:25:06.342Z,7.00
2022-09-12T19:26:39.068Z,9.15
2022-09-12T19:29:42.396Z,7.60
2022-09-12T19:31:15.954Z,6.57
2022-09-12T19:32:47.641Z,6.82
2022-09-12T19:34:19.311Z,8.18
2022-09-12T19:35:51.075Z,8.27
2022-09-12T19:37:22.724Z,8.73
2022-09-12T19:38:54.363Z,8.50
2022-09-12T19:40:26.050Z,9.90
2022-09-12T19:41:57.854Z,10.93
2022-09-12T19:43:30.790Z,9.07
2022-09-12T19:45:02.457Z,7.63
2022-09-12T19:46:34.380Z,7.45
2022-09-12T19:48:08.946Z,6.82
2022-09-12T19:49:40.620Z,6.97
2022-09-12T19:51:15.476Z,10.00
2022-09-12T19:52:47.128Z,7.43
2022-09-12T19:54:18.778Z,7.82
2022-09-12T19:55:50.468Z,9.07
2022-09-12T19:57:22.146Z,7.90
2022-09-12T19:58:56.587Z,8.13
2022-09-12T20:00:28.710Z,14.05
2022-09-12T20:02:02.029Z,8.33
2022-09-12T20:03:33.810Z,8.32
2022-09-12T20:05:05.771Z,8.43
2022-09-12T20:06:37.612Z,8.82
2022-09-12T20:08:09.947Z,9.93
2022-09-12T20:09:41.659Z,8.57
2022-09-12T20:11:17.750Z,10.50
2022-09-12T20:12:49.431Z,11.63
2022-09-12T20:14:22.314Z,9.18
2022-09-12T20:15:54.076Z,8.30
2022-09-12T20:17:25.808Z,11.10
2022-09-12T20:18:58.771Z,9.55
2022-09-12T20:20:31.108Z,9.02
2022-09-12T20:22:03.174Z,7.63
2022-09-12T20:23:34.860Z,10.90
2022-09-12T20:25:06.684Z,8.68
2022-09-12T20:26:38.656Z,11.32
2022-09-12T20:28:10.269Z,10.32
2022-09-12T20:29:42.145Z,9.32
2022-09-12T20:31:14.847Z,9.20
2022-09-12T20:32:46.865Z,9.32
2022-09-12T20:34:20.379Z,8.82
2022-09-12T20:35:52.018Z,10.43
2022-09-12T20:37:24.210Z,8.45
2022-09-12T20:38:57.925Z,9.23
2022-09-12T20:40:29.841Z,10.05
2022-09-12T20:42:01.444Z,7.85
2022-09-12T20:43:33.163Z,10.23
2022-09-12T20:45:05.034Z,10.13
2022-09-12T20:46:36.758Z,11.05
2022-09-12T20:48:08.486Z,8.18
2022-09-12T20:49:40.302Z,8.38
2022-09-12T20:51:14.542Z,9.85
2022-09-12T20:52:46.323Z,12.80
2022-09-12T20:54:18.003Z,8.93
2022-09-12T20:55:52.744Z,10.80
2022-09-12T20:57:24.527Z,9.50
2022-09-12T20:58:56.290Z,9.07
2022-09-12T21:00:28.602Z,11.63
2022-09-12T21:02:00.300Z,10.52
2022-09-12T21:03:31.987Z,9.40
2022-09-12T21:05:03.762Z,9.93
2022-09-12T21:06:35.491Z,10.67
2022-09-12T21:08:07.281Z,9.17
2022-09-12T21:09:39.589Z,15.57
2022-09-12T21:11:11.283Z,11.18
2022-09-12T21:12:42.966Z,11.70
2022-09-12T21:14:14.626Z,11.38
2022-09-12T21:15:46.387Z,12.73
2022-09-12T21:17:18.035Z,9.48
2022-09-12T21:18:54.120Z,13.88
2022-09-12T21:20:25.869Z,10.68
2022-09-12T21:21:57.604Z,9.07
2022-09-12T21:23:29.295Z,9.10
2022-09-12T21:25:00.912Z,9.35
2022-09-12T21:26:32.592Z,11.77
2022-09-12T21:28:04.264Z,9.63
2022-09-12T21:29:35.933Z,12.60
2022-09-12T21:31:07.640Z,7.53
2022-09-12T21:32:39.394Z,9.18
2022-09-12T21:34:11.052Z,8.50
2022-09-12T21:35:42.673Z,11.23
2022-09-12T21:37:14.333Z,9.73
2022-09-12T21:38:45.989Z,9.52
2022-09-12T21:40:17.792Z,8.88
2022-09-12T21:41:50.035Z,8.98
2022-09-12T21:43:21.728Z,12.88
2022-09-12T21:44:53.466Z,9.60
2022-09-12T21:46:25.195Z,8.02
2022-09-12T21:47:57.244Z,13.43
2022-09-12T21:49:28.912Z,8.32
2022-09-12T21:51:00.588Z,9.30
2022-09-12T21:52:32.336Z,10.82
2022-09-12T21:54:04.087Z,9.50
2022-09-12T21:55:35.776Z,14.27
2022-09-12T21:57:07.469Z,11.13
2022-09-12T21:58:39.400Z,12.23
2022-09-12T22:00:13.009Z,10.90
2022-09-12T22:01:50.266Z,10.80
2022-09-12T22:03:22.180Z,9.88
2022-09-12T22:04:56.628Z,11.68
2022-09-12T22:06:28.311Z,9.05
2022-09-12T22:08:00.902Z,8.77
2022-09-12T22:09:34.463Z,8.02
2022-09-12T22:11:09.350Z,8.80
2022-09-12T22:12:45.941Z,9.65
2022-09-12T22:14:18.061Z,8.90
2022-09-12T22:15:50.471Z,13.35
2022-09-12T22:17:22.588Z,9.80
2022-09-12T22:18:54.465Z,9.15
2022-09-12T22:20:26.153Z,10.18
2022-09-12T22:22:16.468Z,12.90
2022-09-12T22:24:06.738Z,9.43
2022-09-12T22:25:38.459Z,10.80
2022-09-12T22:27:10.174Z,10.85
2022-09-12T22:28:42.776Z,12.82
2022-09-12T22:30:14.454Z,9.15
2022-09-12T22:31:46.270Z,11.30
2022-09-12T22:33:18.000Z,9.75
2022-09-12T22:34:49.899Z,9.40
2022-09-12T22:36:21.617Z,13.02
2022-09-12T22:37:53.323Z,10.40
2022-09-12T22:39:25.017Z,14.52
2022-09-12T22:40:58.053Z,11.27
2022-09-12T22:42:31.321Z,10.20
2022-09-12T22:44:03.083Z,11.68
2022-09-12T22:45:34.795Z,9.80
2022-09-12T22:47:06.552Z,10.48
2022-09-12T22:48:38.413Z,9.73
2022-09-12T22:50:10.048Z,9.53
2022-09-12T22:51:41.741Z,11.13
2022-09-12T22:53:13.425Z,9.55
2022-09-12T22:54:45.315Z,9.60
2022-09-12T22:56:17.061Z,9.15
2022-09-12T22:57:49.138Z,11.43
2022-09-12T22:59:20.828Z,9.48
2022-09-12T23:00:52.514Z,9.38
2022-09-12T23:02:24.232Z,9.57
2022-09-12T23:03:55.882Z,11.30
2022-09-12T23:05:28.123Z,9.85
2022-09-12T23:07:00.153Z,8.63
2022-09-12T23:08:32.189Z,13.00
2022-09-12T23:10:03.938Z,13.55
2022-09-12T23:11:35.591Z,8.95
2022-09-12T23:13:07.503Z,15.30
2022-09-12T23:14:39.195Z,9.15
2022-09-12T23:16:14.885Z,11.85
2022-09-12T23:17:46.562Z,9.60
2022-09-12T23:19:18.310Z,11.60
2022-09-12T23:21:16.117Z,11.13
2022-09-12T23:22:47.817Z,9.73
2022-09-12T23:24:19.497Z,10.98
2022-09-12T23:26:01.323Z,10.43
2022-09-12T23:27:33.015Z,10.32
2022-09-12T23:29:05.848Z,9.20
2022-09-12T23:30:38.119Z,10.63
2022-09-12T23:32:09.777Z,11.23
2022-09-12T23:33:41.458Z,10.95
2022-09-12T23:35:13.075Z,11.07
2022-09-12T23:36:44.896Z,9.30
2022-09-12T23:38:16.618Z,14.50
2022-09-12T23:39:49.781Z,11.95
2022-09-12T23:41:22.560Z,10.20
2022-09-12T23:44:25.695Z,9.80
2022-09-12T23:45:58.002Z,11.75
2022-09-12T23:47:29.794Z,11.77
2022-09-12T23:49:01.447Z,10.32
2022-09-12T23:50:33.081Z,11.00
2022-09-12T23:52:04.895Z,9.32
2022-09-12T23:53:36.597Z,7.93
2022-09-12T23:55:08.545Z,8.15
2022-09-12T23:56:40.246Z,8.43
2022-09-12T23:58:12.293Z,8.40
2022-09-12T23:59:43.917Z,9.85
